createdAt,value
2023-05-21T00:00:17.926Z,8.98
2023-05-21T00:05:17.634Z,8.18
2023-05-21T00:10:14.620Z,7.40
2023-05-21T00:15:11.978Z,9.02
2023-05-21T00:20:09.369Z,9.20
2023-05-21T00:25:07.589Z,8.05
2023-05-21T00:30:05.726Z,9.30
2023-05-21T00:35:02.926Z,8.43
2023-05-21T00:40:00.016Z,9.13
2023-05-21T00:45:00.251Z,8.88
2023-05-21T00:49:57.158Z,8.35
2023-05-21T00:54:54.052Z,9.02
2023-05-21T00:59:53.210Z,8.80
2023-05-21T01:04:51.705Z,9.65
2023-05-21T01:09:48.733Z,10.15
2023-05-21T01:14:45.912Z,8.27
2023-05-21T01:19:44.571Z,9.20
2023-05-21T01:24:47.099Z,9.32
2023-05-21T01:29:43.985Z,8.77
2023-05-21T01:34:48.025Z,9.32
2023-05-21T01:39:53.931Z,9.43
2023-05-21T01:44:54.844Z,9.65
2023-05-21T01:49:52.327Z,8.88
2023-05-21T01:54:51.187Z,9.80
2023-05-21T01:59:48.125Z,9.77
2023-05-21T02:04:45.862Z,9.88
2023-05-21T02:09:42.643Z,9.32
2023-05-21T02:14:40.135Z,9.13
2023-05-21T02:19:37.385Z,9.48
2023-05-21T02:24:34.264Z,8.68
2023-05-21T02:29:31.024Z,9.25
2023-05-21T02:34:30.328Z,9.35
2023-05-21T02:39:27.142Z,10.02
2023-05-21T02:44:24.098Z,9.90
2023-05-21T02:49:21.141Z,10.32
2023-05-21T02:54:19.417Z,10.05
2023-05-21T02:59:16.305Z,10.23
2023-05-21T03:04:13.231Z,9.32
2023-05-21T03:09:10.825Z,9.32
2023-05-21T03:14:09.264Z,9.00
2023-05-21T03:19:06.103Z,9.68
2023-05-21T03:24:03.343Z,9.82
2023-05-21T03:29:00.887Z,10.07
2023-05-21T03:33:58.570Z,10.00
2023-05-21T03:38:58.883Z,9.45
2023-05-21T03:43:56.270Z,10.60
2023-05-21T03:48:58.282Z,10.20
2023-05-21T03:53:58.015Z,9.68
2023-05-21T03:58:56.190Z,9.55
2023-05-21T04:03:53.700Z,10.88
2023-05-21T04:08:54.169Z,10.18
2023-05-21T04:13:51.154Z,9.23
2023-05-21T04:18:48.044Z,10.15
2023-05-21T04:23:46.246Z,7.85
2023-05-21T04:29:02.506Z,9.07
2023-05-21T04:33:59.873Z,9.68
2023-05-21T04:38:57.082Z,8.18
2023-05-21T04:43:54.940Z,7.30
2023-05-21T04:48:55.510Z,8.77
2023-05-21T04:53:56.714Z,9.02
2023-05-21T04:58:58.276Z,8.18
2023-05-21T05:04:01.872Z,9.50
2023-05-21T05:08:59.216Z,8.23
2023-05-21T05:14:02.862Z,9.13
2023-05-21T05:19:02.327Z,7.97
2023-05-21T05:24:03.871Z,7.32
2023-05-21T05:29:02.482Z,8.18
2023-05-21T05:33:59.453Z,9.38
2023-05-21T05:38:57.388Z,9.50
2023-05-21T05:43:57.661Z,11.65
2023-05-21T05:48:58.104Z,8.23
2023-05-21T05:53:55.308Z,8.82
2023-05-21T05:59:09.914Z,8.68
2023-05-21T06:04:09.592Z,8.88
2023-05-21T06:09:13.552Z,11.23
2023-05-21T06:14:12.629Z,9.38
2023-05-21T06:19:09.858Z,8.98
2023-05-21T06:24:07.585Z,9.05
2023-05-21T06:29:07.695Z,9.20
2023-05-21T06:34:06.761Z,7.88
2023-05-21T06:39:03.841Z,8.52
2023-05-21T06:44:25.899Z,8.50
2023-05-21T06:49:43.939Z,8.75
2023-05-21T06:54:41.829Z,8.25
2023-05-21T06:59:41.964Z,7.57
2023-05-21T07:04:44.943Z,8.27
2023-05-21T07:09:42.232Z,7.70
2023-05-21T07:14:40.264Z,6.25
2023-05-21T07:19:41.005Z,5.95
2023-05-21T07:29:43.765Z,5.70
2023-05-21T07:34:54.217Z,6.20
2023-05-21T07:39:57.448Z,6.55
2023-05-21T07:44:54.503Z,5.95
2023-05-21T07:50:07.919Z,6.38
2023-05-21T07:55:08.543Z,5.57
2023-05-21T08:00:21.504Z,4.80
2023-05-21T08:05:23.785Z,4.93
2023-05-21T08:10:21.928Z,5.45
2023-05-21T08:15:21.074Z,5.43
2023-05-21T08:20:19.973Z,5.70
2023-05-21T08:25:27.164Z,5.35
2023-05-21T08:30:26.474Z,6.28
2023-05-21T08:35:23.433Z,7.05
2023-05-21T08:40:31.869Z,5.40
2023-05-21T08:45:37.125Z,5.45
2023-05-21T08:50:49.218Z,4.90
2023-05-21T08:55:55.097Z,5.13
2023-05-21T09:01:04.186Z,5.78
2023-05-21T09:06:02.034Z,5.55
2023-05-21T09:11:01.649Z,5.63
2023-05-21T09:16:05.673Z,6.22
2023-05-21T09:21:24.637Z,5.40
2023-05-21T09:26:23.052Z,6.63
2023-05-21T09:32:04.045Z,5.70
2023-05-21T09:37:04.911Z,5.55
2023-05-21T09:42:08.644Z,6.40
2023-05-21T09:47:09.260Z,5.57
2023-05-21T09:52:06.748Z,5.40
2023-05-21T09:57:05.015Z,5.35
2023-05-21T10:02:11.621Z,6.15
2023-05-21T10:07:09.385Z,5.15
2023-05-21T10:12:19.006Z,6.13
2023-05-21T10:17:36.574Z,5.45
2023-05-21T10:22:36.464Z,5.70
2023-05-21T10:27:34.857Z,5.20
2023-05-21T10:32:32.602Z,4.93
2023-05-21T10:37:32.763Z,4.13
2023-05-21T10:43:00.509Z,5.43
2023-05-21T10:48:15.557Z,5.63
2023-05-21T10:53:20.957Z,6.00
2023-05-21T10:58:48.431Z,5.82
2023-05-21T11:03:46.783Z,5.07
2023-05-21T11:08:47.827Z,4.40
2023-05-21T11:13:53.140Z,4.55
2023-05-21T11:19:01.648Z,4.10
2023-05-21T11:24:10.258Z,6.10
2023-05-21T11:29:45.375Z,4.97
2023-05-21T11:35:14.971Z,4.63
2023-05-21T11:41:03.974Z,4.57
2023-05-21T11:46:21.656Z,5.65
2023-05-21T11:51:20.741Z,5.97
2023-05-21T11:56:23.881Z,6.07
2023-05-21T12:01:26.203Z,4.18
2023-05-21T12:06:27.055Z,4.30
2023-05-21T12:11:26.503Z,4.88
2023-05-21T12:16:25.159Z,5.05
2023-05-21T12:21:23.354Z,4.65
2023-05-21T12:26:21.485Z,4.50
2023-05-21T12:31:42.675Z,4.57
2023-05-21T12:36:50.009Z,4.72
2023-05-21T12:42:04.461Z,4.82
2023-05-21T12:47:13.447Z,4.95
2023-05-21T12:52:13.409Z,4.93
2023-05-21T12:57:15.222Z,4.78
2023-05-21T13:02:16.150Z,4.57
2023-05-21T13:07:20.768Z,4.70
2023-05-21T13:13:16.074Z,4.72
2023-05-21T13:18:14.480Z,4.72
2023-05-21T13:23:21.663Z,4.05
2023-05-21T13:28:19.599Z,6.13
2023-05-21T13:33:17.536Z,4.50
2023-05-21T13:38:15.613Z,3.65
2023-05-21T13:43:12.967Z,4.72
2023-05-21T13:48:17.194Z,4.53
2023-05-21T14:03:52.442Z,4.85
2023-05-21T14:08:50.782Z,4.30
2023-05-21T14:13:54.320Z,5.32
2023-05-21T14:18:53.669Z,5.97
2023-05-21T14:24:07.058Z,5.32
2023-05-21T14:29:06.348Z,6.40
2023-05-21T14:34:04.152Z,5.13
2023-05-21T14:39:01.690Z,4.32
2023-05-21T14:43:59.723Z,3.80
2023-05-21T14:49:02.272Z,5.30
2023-05-21T14:54:12.703Z,6.55
2023-05-21T14:59:22.409Z,4.38
2023-05-21T15:04:23.136Z,3.92
2023-05-21T15:09:22.442Z,4.03
2023-05-21T15:14:23.004Z,5.22
2023-05-21T15:19:47.462Z,4.90
2023-05-21T15:24:45.201Z,6.57
2023-05-21T15:29:45.140Z,4.63
2023-05-21T15:34:44.784Z,4.38
2023-05-21T15:39:44.275Z,5.45
2023-05-21T15:44:43.694Z,4.40
2023-05-21T15:49:57.152Z,4.90
2023-05-21T15:54:55.777Z,4.97
2023-05-21T15:59:59.036Z,5.35
2023-05-21T16:04:59.577Z,6.25
2023-05-21T16:09:56.891Z,5.70
2023-05-21T16:15:01.955Z,5.55
2023-05-21T16:20:12.512Z,5.25
2023-05-21T16:25:09.582Z,5.57
2023-05-21T16:30:14.244Z,6.15
2023-05-21T16:35:11.370Z,5.90
2023-05-21T16:40:10.155Z,6.95
2023-05-21T16:45:12.832Z,5.93
2023-05-21T16:50:10.354Z,5.20
2023-05-21T16:55:08.123Z,6.03
2023-05-21T17:00:07.306Z,6.22
2023-05-21T17:05:05.925Z,6.05
2023-05-21T17:10:02.959Z,5.82
2023-05-21T17:15:00.284Z,5.70
2023-05-21T17:20:04.968Z,5.40
2023-05-21T17:25:03.066Z,4.80
2023-05-21T17:30:00.384Z,5.93
2023-05-21T17:35:00.560Z,5.45
2023-05-21T17:39:59.944Z,5.10
2023-05-21T17:45:09.393Z,5.55
2023-05-21T17:50:08.242Z,5.05
2023-05-21T17:55:07.116Z,5.75
2023-05-21T18:00:06.478Z,5.97
2023-05-21T18:05:09.477Z,5.00
2023-05-21T18:10:07.282Z,5.20
2023-05-21T18:15:06.039Z,6.13
2023-05-21T18:20:04.111Z,5.40
2023-05-21T18:25:01.754Z,4.82
2023-05-21T18:30:05.607Z,5.32
2023-05-21T18:35:03.880Z,12.63
2023-05-21T18:40:05.497Z,5.82
2023-05-21T18:45:09.634Z,5.88
2023-05-21T18:50:11.594Z,5.50
2023-05-21T18:55:09.685Z,5.88
2023-05-21T19:00:09.103Z,6.10
2023-05-21T19:05:08.163Z,5.30
2023-05-21T19:10:06.357Z,6.15
2023-05-21T19:15:07.317Z,6.68
2023-05-21T19:20:05.585Z,5.25
2023-05-21T19:25:04.039Z,5.63
2023-05-21T19:30:01.122Z,5.10
2023-05-21T19:34:58.159Z,6.20
2023-05-21T19:39:56.250Z,5.70
2023-05-21T19:44:53.906Z,6.45
2023-05-21T19:49:51.215Z,5.95
2023-05-21T19:54:48.156Z,5.68
2023-05-21T19:59:44.977Z,5.57
2023-05-21T20:04:42.656Z,5.72
2023-05-21T20:09:39.937Z,6.47
2023-05-21T20:14:36.916Z,6.28
2023-05-21T20:19:35.419Z,6.63
2023-05-21T20:24:33.578Z,6.82
2023-05-21T20:29:31.262Z,6.25
2023-05-21T20:34:29.243Z,6.43
2023-05-21T20:39:28.074Z,5.97
2023-05-21T20:44:26.952Z,6.85
2023-05-21T20:49:25.204Z,6.35
2023-05-21T20:54:22.403Z,5.95
2023-05-21T20:59:19.495Z,5.93
2023-05-21T21:04:17.260Z,6.18
2023-05-21T21:09:14.169Z,6.75
2023-05-21T21:14:13.749Z,6.00
2023-05-21T21:19:10.888Z,5.25
2023-05-21T21:24:08.919Z,5.85
2023-05-21T21:29:05.987Z,5.45
2023-05-21T21:34:03.383Z,5.57
2023-05-21T21:39:00.688Z,5.30
2023-05-21T21:43:58.392Z,5.25
2023-05-21T21:48:55.359Z,6.05
2023-05-21T21:53:52.420Z,5.30
2023-05-21T21:58:49.596Z,6.47
2023-05-21T22:03:47.377Z,6.00
2023-05-21T22:08:44.528Z,6.20
2023-05-21T22:13:41.406Z,5.82
2023-05-21T22:18:41.122Z,5.80
2023-05-21T22:23:39.461Z,5.63
2023-05-21T22:28:36.936Z,5.28
2023-05-21T22:33:33.950Z,6.38
2023-05-21T22:38:31.098Z,5.97
2023-05-21T22:43:28.693Z,5.60
2023-05-21T22:48:25.914Z,6.05
2023-05-21T22:53:22.980Z,5.90
2023-05-21T22:58:19.961Z,5.35
2023-05-21T23:03:17.959Z,4.85
2023-05-21T23:08:15.863Z,5.75
2023-05-21T23:13:12.752Z,6.35
2023-05-21T23:18:10.814Z,5.03
2023-05-21T23:23:09.253Z,4.80
2023-05-21T23:28:06.385Z,5.30
2023-05-21T23:33:03.631Z,5.45
2023-05-21T23:38:00.840Z,5.20
2023-05-21T23:42:58.660Z,4.45
2023-05-21T23:47:55.541Z,4.68
2023-05-21T23:52:52.815Z,4.43
2023-05-21T23:57:49.890Z,4.00
